Time;durP1;ratioP1;P1;durP2;ratioP2;P2;SDS_P1;SDS_P2;PMS_P1;PMS_P2;Temp;Humidity;BMP_temperature;BMP_pressure;BME280_temperature;BME280_humidity;BME280_pressure;Samples;Min_cycle;Max_cycle;Signal;HPM_P1;HPM_P2
2021/12/20 00:00:32;;;;;;;283.23;196.25;;;;;;;24.62;34.86;102186.94;5065353;28;20036;-43
2021/12/20 00:03:01;;;;;;;283.25;196.07;;;;;;;24.63;34.81;102180.84;5063738;28;20036;-43
2021/12/20 00:05:30;;;;;;;300.33;202.23;;;;;;;24.61;35.02;102183.44;5064813;28;20627;-43
2021/12/20 00:07:59;;;;;;;299.23;206.85;;;;;;;24.63;34.77;102189.63;5065276;28;20035;-43
2021/12/20 00:10:27;;;;;;;278.08;194.43;;;;;;;24.63;34.73;102189.63;5064928;28;20041;-43
2021/12/20 00:12:56;;;;;;;294.98;202.20;;;;;;;24.67;34.72;102191.47;5064729;28;20453;-43
2021/12/20 00:15:24;;;;;;;299.58;203.75;;;;;;;24.62;35.10;102181.69;5063593;28;20093;-43
2021/12/20 00:17:53;;;;;;;292.30;199.55;;;;;;;24.60;34.83;102188.63;5064628;28;20371;-43
2021/12/20 00:20:22;;;;;;;286.73;201.43;;;;;;;24.59;34.95;102193.00;5064746;28;21220;-44
2021/12/20 00:22:51;;;;;;;304.13;206.10;;;;;;;24.58;34.77;102188.59;5064449;28;20043;-43
2021/12/20 00:25:20;;;;;;;294.10;204.93;;;;;;;24.61;34.84;102185.16;5064628;28;20135;-43
2021/12/20 00:27:48;;;;;;;298.52;204.13;;;;;;;24.60;34.92;102181.66;5064498;28;20123;-44
2021/12/20 00:30:17;;;;;;;290.05;205.57;;;;;;;24.55;34.90;102180.63;5064425;28;20117;-43
2021/12/20 00:32:45;;;;;;;287.08;199.40;;;;;;;24.52;34.91;102172.66;5064319;28;20501;-43
2021/12/20 00:35:14;;;;;;;291.27;202.15;;;;;;;24.53;34.79;102169.19;5064415;28;20032;-43
2021/12/20 00:40:29;;;;;;;302.33;200.95;;;;;;;24.52;34.70;102162.16;5060145;28;20049;-44
2021/12/20 00:43:02;;;;;;;275.55;197.40;;;;;;;24.47;34.45;102162.03;5063064;28;20028;-43
2021/12/20 00:45:33;;;;;;;270.25;194.13;;;;;;;24.45;34.48;102160.22;5064117;28;20032;-43
2021/12/20 00:48:02;;;;;;;279.05;198.20;;;;;;;24.42;34.31;102154.03;5064074;28;20028;-41
2021/12/20 00:50:30;;;;;;;279.67;196.65;;;;;;;24.39;34.60;102156.56;5063832;28;20116;-42
2021/12/20 00:52:59;;;;;;;278.67;196.90;;;;;;;24.47;34.65;102148.06;5062353;28;20115;-42
2021/12/20 00:55:29;;;;;;;283.30;198.07;;;;;;;24.48;34.41;102155.06;5064281;28;20474;-44
2021/12/20 00:57:59;;;;;;;289.30;198.82;;;;;;;24.39;34.64;102148.69;5064056;28;20032;-42
2021/12/20 01:00:31;;;;;;;289.48;207.63;;;;;;;24.34;34.70;102155.53;5062885;28;20039;-42
2021/12/20 01:03:00;;;;;;;287.75;201.38;;;;;;;24.42;34.57;102151.41;5062342;28;20115;-43
2021/12/20 01:05:28;;;;;;;299.10;209.48;;;;;;;24.49;34.38;102143.75;5064104;28;20036;-42
2021/12/20 01:07:59;;;;;;;299.15;206.80;;;;;;;24.32;35.01;102149.38;5062225;28;20062;-42
2021/12/20 01:10:29;;;;;;;298.98;205.75;;;;;;;24.33;34.96;102143.25;5063815;28;20037;-42
2021/12/20 01:13:00;;;;;;;301.35;213.02;;;;;;;24.44;34.88;102146.22;5063382;28;20482;-42
2021/12/20 01:15:45;;;;;;;300.23;214.68;;;;;;;24.42;34.61;102146.19;5062766;28;20044;-42
2021/12/20 01:18:12;;;;;;;;;;;;;;;24.61;34.39;102144.09;5062801;28;20051;-42
2021/12/20 01:20:41;;;;;;;311.65;219.82;;;;;;;24.47;34.57;102141.06;5063686;28;19932;-42
2021/12/20 01:23:11;;;;;;;307.92;220.32;;;;;;;24.36;34.92;102148.59;5063986;28;20099;-42
2021/12/20 01:25:40;;;;;;;321.27;225.52;;;;;;;24.36;35.21;102148.59;5063369;28;20038;-43
2021/12/20 01:28:09;;;;;;;331.05;229.52;;;;;;;24.35;34.77;102136.31;5063730;28;20044;-43
2021/12/20 01:30:40;;;;;;;320.80;226.18;;;;;;;24.40;35.10;102139.13;5063655;28;20024;-42
2021/12/20 01:33:11;;;;;;;320.08;227.30;;;;;;;24.39;34.86;102134.72;5063564;28;20055;-43
2021/12/20 01:35:39;;;;;;;314.55;221.18;;;;;;;24.37;35.00;102133.78;5062158;28;20177;-42
2021/12/20 01:38:08;;;;;;;327.23;227.88;;;;;;;24.27;34.87;102135.22;5063718;28;20032;-42
2021/12/20 01:40:37;;;;;;;320.40;228.32;;;;;;;24.20;35.33;102130.63;5063705;28;20954;-42
2021/12/20 01:43:06;;;;;;;331.83;223.82;;;;;;;24.27;35.16;102133.47;5063273;28;20386;-43
2021/12/20 01:45:35;;;;;;;316.67;229.18;;;;;;;24.31;35.35;102137.09;5062879;28;20363;-42
2021/12/20 01:48:07;;;;;;;321.67;226.10;;;;;;;24.26;34.99;102141.31;5063412;28;20020;-42
2021/12/20 01:51:11;;;;;;;337.38;231.13;;;;;;;24.17;35.21;102127.91;5063356;28;20040;-43
2021/12/20 01:53:26;;;;;;;329.98;226.43;;;;;;;24.18;35.41;102137.53;5063232;28;20036;-43
2021/12/20 01:55:56;;;;;;;321.58;229.02;;;;;;;24.17;35.41;102135.75;5063380;28;20393;-42
2021/12/20 01:58:25;;;;;;;323.02;227.50;;;;;;;24.28;35.43;102134.38;5063378;28;20489;-42
2021/12/20 02:03:34;;;;;;;331.58;233.80;;;;;;;24.17;35.55;102131.44;5065589;28;20111;-42
2021/12/20 02:06:06;;;;;;;337.48;237.38;;;;;;;24.26;35.27;102125.56;5067196;28;20371;-42
2021/12/20 02:08:34;;;;;;;343.60;236.93;;;;;;;24.21;35.55;102129.78;5067140;28;20404;-42
2021/12/20 02:11:10;;;;;;;336.13;232.88;;;;;;;24.21;35.02;102120.19;5067004;28;20053;-42
2021/12/20 02:13:40;;;;;;;340.58;234.75;;;;;;;24.20;35.07;102113.19;5067465;28;20276;-42
2021/12/20 02:16:09;;;;;;;330.45;231.30;;;;;;;24.22;34.94;102127.22;5067335;28;20033;-43
2021/12/20 02:18:37;;;;;;;339.08;230.10;;;;;;;24.30;35.18;102122.22;5067163;28;20020;-43
2021/12/20 02:21:06;;;;;;;315.27;224.52;;;;;;;24.27;34.71;102123.00;5067318;28;20787;-42
2021/12/20 02:23:35;;;;;;;329.58;227.50;;;;;;;24.19;34.90;102128.84;5066816;28;20071;-42
2021/12/20 02:26:05;;;;;;;312.52;216.88;;;;;;;24.09;34.83;102125.94;5065152;28;20378;-43
2021/12/20 02:28:38;;;;;;;316.05;213.63;;;;;;;24.13;34.62;102121.69;5067071;28;20021;-42
2021/12/20 02:39:16;;;;;;;302.67;220.63;;;;;;;24.16;34.52;102128.78;5062800;28;20098;-42
2021/12/20 02:41:45;;;;;;;310.15;222.35;;;;;;;24.23;34.29;102128.09;5056119;28;20051;-42
2021/12/20 02:44:19;;;;;;;308.63;215.27;;;;;;;24.10;34.86;102143.47;5066694;28;20028;-42
2021/12/20 02:47:02;;;;;;;310.40;220.88;;;;;;;24.07;34.59;102143.34;5066723;28;20033;-43
2021/12/20 02:49:32;;;;;;;305.77;212.05;;;;;;;24.14;34.78;102149.69;5066597;28;20041;-42
2021/12/20 02:52:03;;;;;;;311.00;216.52;;;;;;;24.18;34.69;102148.94;5066366;28;20037;-42
2021/12/20 02:54:32;;;;;;;313.02;217.43;;;;;;;24.05;34.95;102150.28;5066696;28;20460;-42
2021/12/20 02:57:01;;;;;;;310.00;220.27;;;;;;;24.10;34.58;102147.81;5066324;28;20032;-42
2021/12/20 02:59:29;;;;;;;307.02;214.63;;;;;;;24.02;34.80;102142.31;5065641;28;20069;-42
2021/12/20 03:02:02;;;;;;;300.02;213.75;;;;;;;24.08;34.79;102139.91;5066332;28;20079;-43
2021/12/20 03:04:30;;;;;;;301.80;211.40;;;;;;;23.98;34.77;102137.84;5066346;28;20039;-42
2021/12/20 03:07:01;;;;;;;294.42;207.75;;;;;;;24.09;34.64;102130.28;5064760;28;20025;-42
2021/12/20 03:09:35;;;;;;;309.08;219.07;;;;;;;23.91;34.68;102136.69;5066159;28;20063;-43
2021/12/20 03:12:04;;;;;;;312.80;223.05;;;;;;;24.10;34.37;102135.59;5066237;28;20028;-42
2021/12/20 03:14:37;;;;;;;326.20;224.48;;;;;;;24.06;34.81;102131.09;5064154;28;20123;-42
2021/12/20 03:17:06;;;;;;;319.65;229.35;;;;;;;24.16;34.38;102126.16;5066094;28;20032;-43
2021/12/20 03:19:35;;;;;;;318.38;222.65;;;;;;;24.05;34.79;102124.06;5065898;28;20584;-42
2021/12/20 03:22:04;;;;;;;320.30;218.52;;;;;;;24.04;34.65;102116.16;5066013;28;20386;-43
2021/12/20 03:24:33;;;;;;;324.85;229.65;;;;;;;24.00;34.71;102107.31;5066049;28;20035;-43
2021/12/20 03:27:01;;;;;;;329.73;233.73;;;;;;;24.09;34.57;102125.03;5066179;28;20064;-42
2021/12/20 03:29:30;;;;;;;326.02;230.95;;;;;;;24.07;34.64;102122.38;5065988;28;20035;-43
2021/12/20 03:31:58;;;;;;;331.65;233.25;;;;;;;23.99;34.84;102109.88;5065225;28;20049;-42
2021/12/20 03:34:27;;;;;;;336.13;233.90;;;;;;;24.05;34.72;102118.81;5051003;28;20036;-42
2021/12/20 03:36:55;;;;;;;355.77;238.57;;;;;;;24.05;34.80;102107.47;5065212;28;20036;-42
2021/12/20 03:39:24;;;;;;;340.95;240.05;;;;;;;23.88;35.12;102092.06;5064146;28;20387;-41
2021/12/20 03:41:53;;;;;;;353.20;245.55;;;;;;;23.93;35.43;102098.31;5065902;28;20040;-42
2021/12/20 03:44:22;;;;;;;338.42;243.32;;;;;;;23.87;35.41;102094.63;5065720;28;20533;-42
2021/12/20 03:46:51;;;;;;;343.67;238.88;;;;;;;23.91;35.47;102099.13;5065571;28;20029;-43
2021/12/20 03:49:19;;;;;;;347.08;244.63;;;;;;;23.81;35.41;102080.53;5065547;28;20032;-43
2021/12/20 03:51:46;;;;;;;355.17;247.27;;;;;;;23.80;35.48;102094.47;5064772;28;20097;-42
2021/12/20 03:54:15;;;;;;;353.90;247.65;;;;;;;23.92;35.52;102098.28;5065244;28;20075;-42
2021/12/20 03:56:44;;;;;;;364.63;256.75;;;;;;;23.99;35.52;102095.06;5065645;28;20056;-42
2021/12/20 03:59:12;;;;;;;351.77;249.20;;;;;;;23.99;35.23;102092.44;5065639;28;20107;-42
2021/12/20 04:01:40;;;;;;;363.13;254.18;;;;;;;23.92;35.64;102093.06;5064527;28;20031;-42
2021/12/20 04:04:09;;;;;;;365.55;258.10;;;;;;;23.86;35.59;102091.13;5065208;28;20193;-42
2021/12/20 04:06:37;;;;;;;364.15;253.63;;;;;;;23.96;35.51;102081.84;5065067;28;20082;-42
2021/12/20 04:09:06;;;;;;;361.83;259.10;;;;;;;23.86;35.67;102087.59;5064531;28;20044;-42
2021/12/20 04:11:34;;;;;;;361.63;259.52;;;;;;;23.85;35.73;102091.97;5064345;28;20028;-42
2021/12/20 04:14:02;;;;;;;365.35;252.13;;;;;;;23.89;35.79;102087.72;5065239;28;20025;-42
2021/12/20 04:16:31;;;;;;;371.95;260.45;;;;;;;23.87;36.04;102097.25;5064988;28;20103;-42
2021/12/20 04:19:00;;;;;;;367.75;257.13;;;;;;;23.85;36.12;102091.97;5047235;28;20933;-43
2021/12/20 04:21:28;;;;;;;376.08;261.55;;;;;;;23.85;35.86;102096.31;5065054;28;20224;-42
2021/12/20 04:23:56;;;;;;;374.77;262.05;;;;;;;23.80;36.11;102090.94;5064716;28;20462;-42
2021/12/20 04:26:25;;;;;;;373.90;263.65;;;;;;;23.82;35.82;102084.00;5063651;28;20047;-42
2021/12/20 04:28:53;;;;;;;378.08;259.02;;;;;;;23.81;36.14;102079.59;5064706;28;20024;-42
2021/12/20 04:31:22;;;;;;;368.58;264.00;;;;;;;23.77;36.31;102077.72;5064040;28;20036;-43
2021/12/20 04:33:51;;;;;;;374.98;261.83;;;;;;;23.78;35.88;102082.13;5064837;28;20089;-42
2021/12/20 04:36:20;;;;;;;365.10;257.08;;;;;;;23.75;36.19;102068.91;5064413;28;20449;-42
2021/12/20 04:38:48;;;;;;;384.67;272.17;;;;;;;23.83;36.16;102076.19;5064637;28;20466;-43
2021/12/20 04:41:17;;;;;;;366.27;260.27;;;;;;;23.96;35.72;102073.97;5064728;28;20089;-43
2021/12/20 04:43:45;;;;;;;377.08;265.10;;;;;;;23.88;35.98;102071.13;5064706;28;20057;-43
2021/12/20 04:46:14;;;;;;;368.77;260.77;;;;;;;23.86;35.62;102061.41;5064044;28;20094;-44
2021/12/20 04:48:42;;;;;;;377.13;265.02;;;;;;;23.92;35.68;102064.22;5063682;28;20875;-43
2021/12/20 04:51:11;;;;;;;381.67;267.65;;;;;;;23.86;35.71;102070.16;5064018;28;20281;-43
2021/12/20 04:53:38;;;;;;;372.08;259.92;;;;;;;23.83;35.76;102057.84;5064048;28;20068;-43
2021/12/20 04:56:07;;;;;;;379.92;264.58;;;;;;;23.85;36.25;102067.47;5064296;28;20025;-43
2021/12/20 04:58:34;;;;;;;373.88;273.58;;;;;;;23.75;36.42;102061.06;5064317;28;20700;-46
2021/12/20 05:01:03;;;;;;;375.40;265.30;;;;;;;23.76;36.00;102058.50;5064125;28;20413;-43
2021/12/20 05:03:31;;;;;;;368.98;263.13;;;;;;;23.73;36.06;102057.53;5063951;28;20267;-44
2021/12/20 05:05:59;;;;;;;377.48;264.38;;;;;;;23.74;36.14;102057.56;5063854;28;21130;-43
2021/12/20 05:08:34;;;;;;;373.48;265.10;;;;;;;23.70;36.15;102060.06;5063446;28;20059;-43
2021/12/20 05:11:04;;;;;;;374.27;267.52;;;;;;;23.75;36.14;102059.34;5064012;28;20429;-43
2021/12/20 05:13:32;;;;;;;377.33;268.33;;;;;;;23.75;36.37;102063.69;5063856;28;20032;-43
2021/12/20 05:16:00;;;;;;;378.17;268.05;;;;;;;23.73;36.34;102060.16;5063518;28;20050;-43
2021/12/20 05:18:29;;;;;;;381.48;269.58;;;;;;;23.70;36.49;102060.94;5063382;28;20412;-43
2021/12/20 05:20:57;;;;;;;378.05;270.85;;;;;;;23.76;36.19;102071.63;5063903;28;20040;-44
2021/12/20 05:23:26;;;;;;;385.58;265.27;;;;;;;23.73;36.17;102073.25;5063969;28;20043;-43
2021/12/20 05:25:55;;;;;;;388.98;271.25;;;;;;;23.72;36.56;102072.34;5063938;28;20466;-44
2021/12/20 05:28:25;;;;;;;382.23;267.98;;;;;;;23.78;36.54;102071.66;5063130;28;20029;-43
2021/12/20 05:30:53;;;;;;;379.65;263.08;;;;;;;23.81;36.41;102071.75;5062888;28;20028;-40
2021/12/20 05:33:23;;;;;;;375.90;264.08;;;;;;;23.78;36.07;102071.66;5063487;28;20021;-43
2021/12/20 05:35:52;;;;;;;377.52;270.58;;;;;;;23.73;36.25;102079.38;5062626;28;20036;-44
2021/12/20 05:38:20;;;;;;;379.70;269.02;;;;;;;23.69;36.55;102080.09;5061887;28;20032;-44
2021/12/20 05:40:49;;;;;;;389.13;270.40;;;;;;;23.71;36.09;102080.16;5062291;28;20044;-43
2021/12/20 05:43:17;;;;;;;379.63;269.17;;;;;;;23.67;36.47;102079.16;5063504;28;20033;-43
2021/12/20 05:45:45;;;;;;;370.92;264.23;;;;;;;23.68;36.16;102073.09;5063203;28;20497;-43
2021/12/20 05:48:13;;;;;;;383.48;273.30;;;;;;;23.73;36.41;102083.72;5062777;28;20028;-43
2021/12/20 05:50:42;;;;;;;381.85;273.55;;;;;;;23.70;36.25;102084.50;5062916;28;20036;-43
2021/12/20 05:53:09;;;;;;;378.80;265.30;;;;;;;23.70;36.64;102086.25;5063140;28;20099;-44
2021/12/20 05:55:38;;;;;;;384.17;274.35;;;;;;;23.62;36.90;102089.50;5063236;28;20032;-46
2021/12/20 05:58:06;;;;;;;381.60;271.58;;;;;;;23.67;36.33;102087.03;5061782;28;20025;-43
2021/12/20 06:00:35;;;;;;;382.33;274.58;;;;;;;23.60;36.50;102082.44;5061786;28;20090;-43
2021/12/20 06:03:03;;;;;;;381.20;274.77;;;;;;;23.61;36.85;102077.25;5062974;28;20032;-43
2021/12/20 06:05:32;;;;;;;383.25;273.05;;;;;;;23.64;36.91;102081.72;5061977;28;20033;-43
2021/12/20 06:08:01;;;;;;;388.77;275.35;;;;;;;23.64;36.58;102072.09;5063012;28;20083;-43
2021/12/20 06:10:30;;;;;;;384.33;270.58;;;;;;;23.64;36.60;102071.22;5063150;28;20040;-44
2021/12/20 06:12:59;;;;;;;383.95;269.15;;;;;;;23.63;36.45;102066.84;5063442;28;20521;-43
2021/12/20 06:15:27;;;;;;;390.80;275.10;;;;;;;23.54;36.93;102064.81;5063367;28;20040;-43
2021/12/20 06:17:56;;;;;;;379.50;271.15;;;;;;;23.55;37.04;102082.31;5063014;28;20065;-43
2021/12/20 06:20:25;;;;;;;379.30;264.70;;;;;;;23.63;36.91;102079.94;5062500;28;20029;-43
2021/12/20 06:22:54;;;;;;;393.85;277.80;;;;;;;23.61;36.81;102077.25;5062720;28;20067;-43
2021/12/20 06:25:22;;;;;;;378.98;267.40;;;;;;;23.61;36.82;102076.38;5063026;28;20086;-43
2021/12/20 06:27:51;;;;;;;374.73;266.00;;;;;;;23.61;36.74;102066.75;5063056;28;20032;-43
2021/12/20 06:30:19;;;;;;;388.85;268.85;;;;;;;23.60;36.61;102077.19;5062896;28;20043;-43
2021/12/20 06:32:48;;;;;;;357.13;260.25;;;;;;;23.56;36.56;102067.47;5063062;28;20036;-43
2021/12/20 06:35:16;;;;;;;367.75;258.80;;;;;;;23.52;37.15;102069.97;5063021;28;20092;-43
2021/12/20 06:37:48;;;;;;;365.98;260.45;;;;;;;23.60;36.69;102074.59;5062543;28;20050;-43
2021/12/20 06:40:15;;;;;;;374.10;259.98;;;;;;;23.61;37.03;102068.50;5062459;28;20465;-43
2021/12/20 06:42:43;;;;;;;383.45;264.05;;;;;;;23.64;36.70;102068.63;5062871;28;20140;-43
2021/12/20 06:45:11;;;;;;;367.67;263.80;;;;;;;23.60;36.60;102071.97;5062594;28;20037;-43
2021/12/20 06:47:40;;;;;;;374.30;264.77;;;;;;;23.55;37.05;102065.69;5063050;28;20063;-44
2021/12/20 06:50:09;;;;;;;383.42;267.40;;;;;;;23.56;36.84;102077.94;5063980;28;20029;-44
2021/12/20 06:52:37;;;;;;;373.10;265.33;;;;;;;23.49;37.02;102072.53;5066673;28;20043;-43
2021/12/20 06:55:06;;;;;;;376.33;267.00;;;;;;;23.63;37.11;102075.56;5066646;28;20029;-44
2021/12/20 06:57:35;;;;;;;385.83;267.23;;;;;;;23.69;36.68;102074.88;5066332;28;20083;-45
2021/12/20 07:00:04;;;;;;;370.83;268.13;;;;;;;23.63;37.00;102079.94;5066310;28;20032;-45
2021/12/20 07:02:32;;;;;;;383.40;267.98;;;;;;;23.63;36.57;102080.81;5066304;28;20139;-44
2021/12/20 07:05:01;;;;;;;377.90;264.45;;;;;;;23.55;36.71;102076.16;5066556;28;20112;-44
2021/12/20 07:07:29;;;;;;;373.17;258.40;;;;;;;23.61;36.67;102081.59;5066264;28;20032;-44
2021/12/20 07:09:58;;;;;;;352.35;247.82;;;;;;;23.56;36.88;102089.31;5065929;28;20048;-43
2021/12/20 07:12:28;;;;;;;352.58;250.00;;;;;;;23.55;36.30;102089.25;5066186;28;20032;-43
2021/12/20 07:14:55;;;;;;;333.92;233.35;;;;;;;23.60;36.30;102087.69;5066232;28;20039;-43
2021/12/20 07:17:23;;;;;;;343.85;235.43;;;;;;;23.51;36.62;102085.66;5065740;28;20024;-44
2021/12/20 07:19:52;;;;;;;335.38;233.13;;;;;;;23.52;36.46;102080.44;5065713;28;20748;-43
2021/12/20 07:22:20;;;;;;;336.50;230.55;;;;;;;23.51;36.67;102070.81;5065954;28;20074;-43
2021/12/20 07:24:49;;;;;;;341.08;233.00;;;;;;;23.53;36.29;102076.13;5064741;28;20078;-43
2021/12/20 07:27:19;;;;;;;338.77;231.40;;;;;;;23.61;36.08;102076.38;5065383;28;20393;-43
2021/12/20 07:29:48;;;;;;;319.83;225.00;;;;;;;23.54;36.16;102079.63;5066254;28;20086;-43
2021/12/20 07:32:16;;;;;;;342.08;228.52;;;;;;;23.55;36.66;102077.06;5064131;28;20040;-43
2021/12/20 07:34:45;;;;;;;335.33;229.48;;;;;;;23.56;36.25;102075.31;5065761;28;20614;-43
2021/12/20 07:37:13;;;;;;;335.13;232.65;;;;;;;23.59;36.38;102067.56;5065787;28;20037;-43
2021/12/20 07:39:40;;;;;;;321.13;225.63;;;;;;;23.60;36.37;102061.50;5065732;28;20032;-43
2021/12/20 07:42:09;;;;;;;330.25;230.57;;;;;;;23.51;36.27;102055.09;5065625;28;20033;-43
2021/12/20 07:44:36;;;;;;;339.58;231.48;;;;;;;23.52;36.68;102056.00;5064149;28;20028;-43
2021/12/20 07:47:04;;;;;;;340.02;231.32;;;;;;;23.52;36.77;102064.72;5065761;28;20028;-43
2021/12/20 07:49:33;;;;;;;345.13;235.70;;;;;;;23.56;36.62;102075.31;5065425;28;20052;-45
2021/12/20 07:52:01;;;;;;;332.52;229.32;;;;;;;23.59;36.11;102075.41;5064968;28;20078;-44
2021/12/20 07:54:30;;;;;;;330.58;235.00;;;;;;;23.58;36.11;102073.66;5065389;28;20097;-43
2021/12/20 07:56:59;;;;;;;324.58;224.32;;;;;;;23.52;36.24;102080.44;5065769;28;20020;-43
2021/12/20 07:59:27;;;;;;;310.50;217.70;;;;;;;23.45;36.60;102082.81;5065361;28;20553;-43
2021/12/20 08:01:56;;;;;;;317.27;217.00;;;;;;;23.49;36.14;102090.84;5064063;28;20103;-43
2021/12/20 08:04:24;;;;;;;324.52;222.57;;;;;;;23.46;36.70;102085.50;5065029;28;20037;-43
2021/12/20 08:06:53;;;;;;;315.02;216.80;;;;;;;23.52;36.58;102093.53;5065039;28;20488;-43
2021/12/20 08:09:22;;;;;;;315.35;216.90;;;;;;;23.52;36.27;102088.31;5064394;28;20045;-44
2021/12/20 08:11:50;;;;;;;318.63;217.20;;;;;;;23.55;36.46;102092.78;5064458;28;20036;-45
2021/12/20 08:14:18;;;;;;;320.27;224.63;;;;;;;23.53;36.20;102097.06;5064788;28;20028;-43
2021/12/20 08:16:47;;;;;;;318.60;224.60;;;;;;;23.51;36.62;102102.25;5064923;28;20473;-44
2021/12/20 08:19:16;;;;;;;320.02;224.95;;;;;;;23.56;36.41;102098.91;5064888;28;20063;-44
2021/12/20 08:21:45;;;;;;;332.00;226.05;;;;;;;23.52;36.25;102097.91;5065138;28;20043;-43
2021/12/20 08:24:12;;;;;;;323.45;227.52;;;;;;;23.50;36.79;102100.47;5064949;28;20025;-44
2021/12/20 08:26:41;;;;;;;328.90;230.27;;;;;;;23.52;36.41;102103.16;5064746;28;20474;-43
2021/12/20 08:29:10;;;;;;;328.88;231.18;;;;;;;23.38;36.52;102100.06;5064530;28;20041;-43
2021/12/20 08:31:39;;;;;;;333.50;229.55;;;;;;;23.43;36.81;102097.59;5064065;28;20478;-43
2021/12/20 08:34:08;;;;;;;332.15;230.38;;;;;;;23.45;36.70;102098.53;5064546;28;20060;-43
2021/12/20 08:36:36;;;;;;;349.63;235.93;;;;;;;23.54;36.57;102106.72;5064679;28;20107;-44
2021/12/20 08:39:04;;;;;;;337.30;233.18;;;;;;;23.49;36.53;102105.66;5064570;28;20059;-43
2021/12/20 08:41:33;;;;;;;325.52;228.40;;;;;;;23.48;36.46;102117.88;5064552;28;20046;-43
2021/12/20 08:44:01;;;;;;;335.35;230.95;;;;;;;23.49;36.83;102111.81;5062827;28;20040;-43
2021/12/20 08:46:29;;;;;;;328.50;228.90;;;;;;;23.45;36.97;102111.63;5063027;28;20036;-43
2021/12/20 08:48:58;;;;;;;323.02;229.07;;;;;;;23.49;36.60;102110.91;5064659;28;20409;-43
2021/12/20 08:51:27;;;;;;;335.23;229.90;;;;;;;23.47;36.83;102108.25;5064366;28;20020;-43
2021/12/20 08:53:55;;;;;;;325.13;231.30;;;;;;;23.44;37.10;102113.38;5064269;28;20539;-43
2021/12/20 08:56:24;;;;;;;318.08;222.63;;;;;;;23.49;36.79;102114.44;5062469;28;20043;-43
2021/12/20 08:58:53;;;;;;;344.70;235.85;;;;;;;23.44;37.02;102123.84;5063766;28;20157;-43
2021/12/20 09:01:22;;;;;;;340.60;232.30;;;;;;;23.43;36.75;102123.78;5062209;28;20119;-43
2021/12/20 09:03:50;;;;;;;341.70;235.13;;;;;;;23.43;37.13;102114.22;5064071;28;20033;-43
2021/12/20 09:06:22;;;;;;;331.10;235.70;;;;;;;23.54;37.00;102118.91;5064455;28;20067;-43
2021/12/20 09:08:51;;;;;;;335.25;236.88;;;;;;;23.48;36.80;102115.25;5063236;28;20071;-42
2021/12/20 09:11:19;;;;;;;342.35;241.50;;;;;;;23.46;37.15;102126.50;5063515;28;20041;-43
2021/12/20 09:13:47;;;;;;;357.77;246.45;;;;;;;23.46;37.17;102126.50;5063423;28;20025;-44
2021/12/20 09:16:16;;;;;;;345.95;238.60;;;;;;;23.50;36.87;102125.78;5063814;28;20471;-43
2021/12/20 09:18:45;;;;;;;337.27;239.48;;;;;;;23.47;37.19;102126.56;5063433;28;20363;-43
2021/12/20 09:21:14;;;;;;;347.45;236.38;;;;;;;23.46;37.17;102129.13;5063503;28;20429;-44
2021/12/20 09:23:42;;;;;;;335.58;234.48;;;;;;;23.47;36.97;102125.66;5063547;28;20029;-44
2021/12/20 09:26:11;;;;;;;334.33;236.93;;;;;;;23.49;36.95;102135.38;5063513;28;20085;-44
2021/12/20 09:28:40;;;;;;;345.75;240.93;;;;;;;23.48;37.08;102140.53;5063728;28;20346;-44
2021/12/20 09:31:09;;;;;;;345.77;244.10;;;;;;;23.51;36.97;102138.03;5063825;28;20498;-43
2021/12/20 09:33:38;;;;;;;348.10;239.13;;;;;;;23.53;36.84;102138.97;5063856;28;20035;-43
2021/12/20 09:36:07;;;;;;;358.00;245.77;;;;;;;23.49;37.17;102138.00;5063427;28;20245;-43
2021/12/20 09:38:36;;;;;;;336.05;236.25;;;;;;;23.47;37.02;102139.66;5063052;28;20122;-43
2021/12/20 09:43:43;;;;;;;338.52;239.32;;;;;;;23.47;37.41;102147.53;5063876;28;20040;-43
2021/12/20 09:46:12;;;;;;;342.58;239.50;;;;;;;23.51;37.01;102148.50;5063231;28;20063;-43
2021/12/20 09:48:43;;;;;;;349.70;245.27;;;;;;;23.49;37.40;102147.56;5061955;28;20542;-43
2021/12/20 09:51:11;;;;;;;352.27;243.65;;;;;;;23.48;37.32;102145.78;5063323;28;21000;-43
2021/12/20 09:53:40;;;;;;;353.75;238.27;;;;;;;23.47;37.12;102155.38;5063084;28;20037;-43
2021/12/20 09:56:10;;;;;;;341.27;238.65;;;;;;;23.45;36.97;102151.81;5063023;28;20035;-43
2021/12/20 09:58:40;;;;;;;343.65;240.65;;;;;;;23.45;37.03;102153.53;5063625;28;20039;-43
2021/12/20 10:01:13;;;;;;;344.27;239.70;;;;;;;23.49;37.08;102151.09;5062908;28;20192;-43
2021/12/20 10:03:44;;;;;;;348.45;238.95;;;;;;;23.51;37.27;102157.25;5061626;28;20135;-43
2021/12/20 10:06:13;;;;;;;335.33;238.68;;;;;;;23.44;37.17;102156.97;5062225;28;20494;-43
2021/12/20 10:08:50;;;;;;;334.95;231.50;;;;;;;23.44;37.35;102163.13;5062923;28;20398;-43
2021/12/20 10:11:21;;;;;;;339.65;239.68;;;;;;;23.33;37.24;102123.47;5063102;28;20040;-43
2021/12/20 10:13:51;;;;;;;342.00;235.20;;;;;;;23.48;36.92;102151.94;5062877;28;20036;-43
2021/12/20 10:16:21;;;;;;;349.45;245.00;;;;;;;23.48;37.09;102148.41;5061512;28;20040;-43
2021/12/20 10:18:51;;;;;;;328.33;235.05;;;;;;;23.45;37.09;102150.91;5062814;28;20028;-43
2021/12/20 10:21:19;;;;;;;340.90;242.35;;;;;;;23.47;37.03;102152.75;5062940;28;20037;-43
2021/12/20 10:23:50;;;;;;;342.63;238.38;;;;;;;23.45;37.41;102149.19;5063164;28;20045;-43
2021/12/20 10:26:20;;;;;;;351.92;242.57;;;;;;;23.47;36.93;102157.09;5066510;28;20132;-44
2021/12/20 10:28:52;;;;;;;346.73;245.00;;;;;;;23.48;37.00;102151.94;5067016;28;21080;-44
2021/12/20 10:31:23;;;;;;;346.35;243.63;;;;;;;23.48;37.08;102149.31;5066846;28;20068;-44
2021/12/20 10:34:01;;;;;;;342.20;241.93;;;;;;;23.48;37.27;102156.25;5066595;28;20029;-42
2021/12/20 10:36:32;;;;;;;342.30;240.38;;;;;;;23.49;37.21;102152.81;5066555;28;20035;-44
2021/12/20 10:39:04;;;;;;;351.42;249.55;;;;;;;23.45;37.12;102154.44;5066602;28;20371;-43
2021/12/20 10:41:36;;;;;;;358.92;249.07;;;;;;;23.48;37.42;102153.63;5066657;28;20531;-44
2021/12/20 10:44:15;;;;;;;360.85;253.55;;;;;;;23.48;37.27;102157.16;5066919;28;20036;-44
2021/12/20 10:47:03;;;;;;;352.42;249.35;;;;;;;23.54;37.19;102150.34;5066720;28;20074;-43
2021/12/20 10:49:32;;;;;;;367.90;258.35;;;;;;;23.49;37.02;102153.72;5066381;28;20474;-43
2021/12/20 10:52:01;;;;;;;368.52;255.82;;;;;;;23.49;37.35;102153.72;5065999;28;20052;-43
2021/12/20 10:54:32;;;;;;;362.73;259.77;;;;;;;23.54;37.35;102146.00;5066479;28;20922;-46
2021/12/20 10:57:05;;;;;;;345.67;246.40;;;;;;;23.62;37.01;102135.78;5066419;28;20880;-43
2021/12/20 10:59:37;;;;;;;360.45;252.07;;;;;;;23.55;36.94;102131.16;5066536;28;20025;-45
2021/12/20 11:05:01;;;;;;;365.15;254.50;;;;;;;23.52;37.47;102137.19;5056379;28;20044;-43
2021/12/20 11:10:08;;;;;;;363.30;255.82;;;;;;;23.53;37.12;102131.13;5066237;28;20040;-42
2021/12/20 11:12:36;;;;;;;372.23;259.50;;;;;;;23.52;36.83;102130.22;5039690;28;20041;-43
2021/12/20 11:15:08;;;;;;;354.80;254.25;;;;;;;23.49;37.13;102126.63;5066087;28;20102;-43
2021/12/20 11:17:40;;;;;;;365.83;253.82;;;;;;;23.49;36.84;102124.91;5066072;28;20393;-43
2021/12/20 11:20:08;;;;;;;360.45;255.82;;;;;;;23.46;37.38;102116.94;5065945;28;20110;-43
2021/12/20 11:22:36;;;;;;;357.92;253.95;;;;;;;23.46;36.86;102126.50;5064913;28;20028;-43
2021/12/20 11:25:07;;;;;;;374.23;251.43;;;;;;;23.45;37.36;102106.38;5066343;28;20470;-43